Air Resources Laboratory banner image
Air Resources Laboratory web site National Oceanic and Atmospheric Administration (NOAA)

pr metar


TJSJ 102256Z 08011KT 10SM SCT032 29/24 A3002 RMK AO2 SLP164 T02890244=
TJSJ 102256Z 08011KT 10SM SCT032 29/24 A3002=